createdAt,value
2023-05-11T00:01:49.300Z,7.81
2023-05-11T00:04:16.543Z,7.80
2023-05-11T00:06:43.824Z,7.80
2023-05-11T00:09:11.602Z,7.80
2023-05-11T00:11:38.767Z,7.80
2023-05-11T00:14:05.741Z,7.80
2023-05-11T00:16:32.851Z,7.79
2023-05-11T00:18:59.908Z,7.79
2023-05-11T00:21:26.891Z,7.84
2023-05-11T00:23:53.769Z,7.89
2023-05-11T00:26:21.588Z,7.92
2023-05-11T00:28:48.514Z,7.94
2023-05-11T00:31:15.573Z,7.94
2023-05-11T00:33:42.919Z,7.94
2023-05-11T00:36:09.755Z,7.93
2023-05-11T00:38:40.864Z,7.91
2023-05-11T00:41:08.207Z,7.87
2023-05-11T00:43:35.427Z,7.85
2023-05-11T00:46:03.058Z,7.84
2023-05-11T00:48:30.163Z,7.82
2023-05-11T00:50:59.098Z,7.80
2023-05-11T00:53:26.016Z,7.77
2023-05-11T00:55:53.372Z,7.73
2023-05-11T00:58:20.244Z,7.71
2023-05-11T01:00:49.953Z,7.76
2023-05-11T01:03:16.920Z,7.79
2023-05-11T01:06:01.568Z,7.80
2023-05-11T01:08:33.796Z,7.80
2023-05-11T01:11:49.033Z,7.82
2023-05-11T01:14:18.976Z,7.86
2023-05-11T01:16:49.516Z,7.87
2023-05-11T01:19:38.562Z,7.84
2023-05-11T01:22:10.320Z,7.84
2023-05-11T01:24:44.758Z,7.82
2023-05-11T01:27:25.150Z,7.81
2023-05-11T01:30:17.227Z,7.81
2023-05-11T01:32:44.453Z,7.83
2023-05-11T01:35:14.706Z,7.85
2023-05-11T01:37:41.780Z,7.87
2023-05-11T01:40:13.901Z,7.87
2023-05-11T01:42:50.378Z,7.85
2023-05-11T01:45:17.427Z,7.84
2023-05-11T01:47:45.066Z,7.82
2023-05-11T01:50:12.340Z,7.83
2023-05-11T01:52:39.911Z,7.83
2023-05-11T01:55:07.343Z,7.82
2023-05-11T01:57:34.721Z,7.82
2023-05-11T02:00:02.434Z,7.81
2023-05-11T02:02:40.249Z,7.80
2023-05-11T02:05:08.061Z,7.78
2023-05-11T02:07:35.552Z,7.78
2023-05-11T02:10:02.488Z,7.79
2023-05-11T02:12:30.261Z,7.79
2023-05-11T02:14:57.196Z,7.79
2023-05-11T02:17:24.212Z,7.80
2023-05-11T02:19:51.230Z,7.80
2023-05-11T02:22:18.198Z,7.76
2023-05-11T02:24:45.083Z,7.75
2023-05-11T02:27:13.064Z,7.75
2023-05-11T02:29:40.075Z,7.73
2023-05-11T02:32:08.226Z,7.71
2023-05-11T02:34:41.179Z,7.69
2023-05-11T02:37:11.204Z,7.70
2023-05-11T02:39:38.232Z,7.68
2023-05-11T02:42:14.280Z,7.69
2023-05-11T02:44:45.355Z,7.71
2023-05-11T02:47:12.664Z,7.71
2023-05-11T02:49:39.688Z,7.73
2023-05-11T02:52:08.024Z,7.76
2023-05-11T02:54:39.184Z,7.79
2023-05-11T02:57:06.290Z,7.81
2023-05-11T02:59:33.497Z,7.81
2023-05-11T03:02:00.680Z,7.81
2023-05-11T03:04:28.287Z,7.80
2023-05-11T03:06:55.885Z,7.82
2023-05-11T03:09:22.931Z,7.83
2023-05-11T03:11:50.096Z,7.89
2023-05-11T03:14:17.174Z,7.96
2023-05-11T03:16:44.422Z,8.01
2023-05-11T03:19:11.625Z,8.02
2023-05-11T03:21:38.668Z,8.02
2023-05-11T03:24:08.652Z,8.06
2023-05-11T03:26:36.262Z,8.10
2023-05-11T03:29:03.594Z,8.15
2023-05-11T03:31:30.699Z,8.18
2023-05-11T03:33:58.879Z,8.23
2023-05-11T03:36:26.574Z,8.31
2023-05-11T03:38:56.604Z,8.38
2023-05-11T03:41:25.924Z,8.42
2023-05-11T03:43:56.173Z,8.50
2023-05-11T03:46:23.218Z,8.56
2023-05-11T03:48:50.496Z,8.59
2023-05-11T03:51:20.228Z,8.61
2023-05-11T03:53:47.426Z,8.67
2023-05-11T03:56:14.344Z,8.75
2023-05-11T03:58:41.297Z,8.87
2023-05-11T04:01:11.012Z,8.97
2023-05-11T04:03:49.696Z,9.01
2023-05-11T04:06:17.516Z,9.11
2023-05-11T04:08:45.611Z,9.22
2023-05-11T04:11:12.729Z,9.26
2023-05-11T04:13:40.032Z,9.33
2023-05-11T04:16:07.424Z,9.47
2023-05-11T04:18:34.651Z,9.58
2023-05-11T04:21:01.677Z,9.76
2023-05-11T04:23:28.732Z,10.00
2023-05-11T04:25:58.092Z,10.19
2023-05-11T04:28:28.087Z,10.39
2023-05-11T04:30:55.768Z,10.63
2023-05-11T04:33:23.282Z,10.79
2023-05-11T04:35:53.985Z,10.89
2023-05-11T04:38:21.029Z,10.96
2023-05-11T04:40:48.641Z,10.91
2023-05-11T04:43:16.412Z,10.90
2023-05-11T04:45:50.449Z,11.00
2023-05-11T04:48:22.349Z,11.10
2023-05-11T04:50:49.395Z,11.21
2023-05-11T04:53:18.715Z,11.37
2023-05-11T04:55:46.533Z,11.57
2023-05-11T04:58:13.615Z,11.76
2023-05-11T05:00:40.912Z,11.82
2023-05-11T05:03:08.074Z,11.88
2023-05-11T05:05:35.756Z,11.96
2023-05-11T05:08:03.584Z,12.21
2023-05-11T05:10:30.843Z,12.51
2023-05-11T05:12:58.207Z,12.66
2023-05-11T05:15:26.416Z,12.92
2023-05-11T05:17:53.869Z,13.31
2023-05-11T05:20:21.151Z,13.60
2023-05-11T05:22:48.176Z,13.87
2023-05-11T05:25:16.959Z,14.25
2023-05-11T05:27:43.913Z,14.71
2023-05-11T05:30:16.772Z,14.96
2023-05-11T05:32:45.068Z,15.11
2023-05-11T05:35:12.010Z,15.34
2023-05-11T05:37:40.000Z,15.52
2023-05-11T05:43:07.680Z,15.90
2023-05-11T05:45:35.084Z,15.90
2023-05-11T05:48:03.099Z,15.90
2023-05-11T05:50:31.230Z,15.92
2023-05-11T05:52:58.675Z,16.06
2023-05-11T05:55:27.762Z,16.07
2023-05-11T05:57:55.661Z,16.28
2023-05-11T06:00:23.085Z,16.33
2023-05-11T06:02:55.331Z,16.33
2023-05-11T06:05:26.463Z,16.50
2023-05-11T06:08:08.411Z,16.60
2023-05-11T06:10:38.391Z,16.60
2023-05-11T06:13:07.212Z,16.78
2023-05-11T06:15:34.969Z,17.24
2023-05-11T06:18:08.110Z,17.46
2023-05-11T06:20:36.083Z,17.45
2023-05-11T06:23:05.196Z,17.69
2023-05-11T06:25:37.358Z,17.90
2023-05-11T06:28:05.168Z,17.64
2023-05-11T06:30:33.522Z,17.27
2023-05-11T06:33:03.716Z,17.18
2023-05-11T06:35:31.608Z,17.32
2023-05-11T06:37:59.498Z,17.54
2023-05-11T06:40:27.131Z,17.78
2023-05-11T06:42:54.392Z,17.71
2023-05-11T06:45:22.074Z,17.65
2023-05-11T06:47:49.445Z,17.56
2023-05-11T06:50:17.891Z,17.60
2023-05-11T06:52:46.227Z,17.57
2023-05-11T06:55:14.547Z,17.44
2023-05-11T06:57:41.772Z,17.00
2023-05-11T07:00:09.965Z,16.73
2023-05-11T07:02:37.318Z,16.78
2023-05-11T07:05:05.034Z,16.98
2023-05-11T07:07:32.357Z,17.26
2023-05-11T07:09:59.584Z,17.55
2023-05-11T07:12:27.053Z,17.64
2023-05-11T07:14:54.077Z,17.63
2023-05-11T07:17:21.675Z,17.41
2023-05-11T07:19:49.773Z,17.12
2023-05-11T07:22:16.865Z,17.17
2023-05-11T07:24:44.070Z,17.59
2023-05-11T07:27:11.790Z,17.63
2023-05-11T07:29:38.897Z,17.77
2023-05-11T07:32:06.160Z,17.41
2023-05-11T07:34:33.449Z,17.58
2023-05-11T07:37:00.888Z,17.89
2023-05-11T07:39:27.877Z,17.88
2023-05-11T07:41:54.982Z,17.78
2023-05-11T07:44:21.990Z,17.92
2023-05-11T07:46:49.244Z,18.13
2023-05-11T07:49:20.740Z,17.96
2023-05-11T07:51:55.918Z,17.72
2023-05-11T07:54:22.944Z,17.50
2023-05-11T07:56:50.795Z,17.69
2023-05-11T07:59:17.899Z,18.21
2023-05-11T08:01:45.163Z,18.63
2023-05-11T08:04:12.233Z,18.83
2023-05-11T08:06:40.652Z,18.78
2023-05-11T08:09:07.679Z,18.10
2023-05-11T08:11:34.993Z,17.44
2023-05-11T08:14:02.574Z,17.15
2023-05-11T08:16:29.913Z,17.03
2023-05-11T08:18:57.247Z,17.02
2023-05-11T08:21:25.111Z,17.05
2023-05-11T08:23:52.122Z,17.22
2023-05-11T08:26:20.171Z,17.65
2023-05-11T08:28:47.529Z,17.75
2023-05-11T08:31:14.686Z,17.58
2023-05-11T08:33:42.398Z,17.51
2023-05-11T08:36:10.579Z,17.30
2023-05-11T08:38:38.315Z,16.89
2023-05-11T08:41:07.811Z,16.73
2023-05-11T08:43:36.375Z,16.49
2023-05-11T08:46:05.291Z,16.27
2023-05-11T08:48:32.534Z,15.98
2023-05-11T08:50:59.708Z,15.74
2023-05-11T08:53:26.906Z,15.58
2023-05-11T08:55:56.101Z,15.56
2023-05-11T08:58:23.164Z,15.73
2023-05-11T09:00:50.614Z,15.85
2023-05-11T09:03:19.205Z,15.78
2023-05-11T09:05:47.472Z,15.73
2023-05-11T09:08:15.336Z,15.73
2023-05-11T09:10:43.738Z,15.62
2023-05-11T09:13:11.743Z,15.73
2023-05-11T09:15:39.056Z,16.02
2023-05-11T09:18:07.186Z,16.40
2023-05-11T09:20:34.863Z,16.61
2023-05-11T09:23:02.003Z,16.72
2023-05-11T09:25:31.930Z,16.71
2023-05-11T09:27:59.806Z,16.56
2023-05-11T09:30:28.114Z,16.27
2023-05-11T09:33:00.003Z,16.05
2023-05-11T09:35:33.790Z,15.80
2023-05-11T09:38:06.253Z,15.57
2023-05-11T09:40:37.580Z,15.43
2023-05-11T09:43:20.962Z,15.32
2023-05-11T09:45:49.708Z,15.21
2023-05-11T09:48:17.112Z,15.10
2023-05-11T09:50:44.260Z,15.05
2023-05-11T09:53:11.884Z,15.07
2023-05-11T09:55:42.177Z,15.07
2023-05-11T09:58:11.162Z,15.03
2023-05-11T10:00:38.614Z,15.09
2023-05-11T10:03:07.292Z,15.09
